createdAt,value
2018-12-04T00:00:37.817Z,100.00
2018-12-04T00:03:07.067Z,100.00
2018-12-04T00:05:36.093Z,100.00
2018-12-04T00:08:05.114Z,100.00
2018-12-04T00:10:34.021Z,100.00
2018-12-04T00:13:02.921Z,100.00
2018-12-04T00:15:31.828Z,100.00
2018-12-04T00:18:00.718Z,100.00
2018-12-04T00:20:29.618Z,100.00
2018-12-04T00:22:58.521Z,100.00
2018-12-04T00:25:27.437Z,100.00
2018-12-04T00:27:56.325Z,100.00
2018-12-04T00:30:25.246Z,100.00
2018-12-04T00:32:54.144Z,100.00
2018-12-04T00:35:23.046Z,100.00
2018-12-04T00:37:51.942Z,100.00
2018-12-04T00:40:20.836Z,100.00
2018-12-04T00:42:49.866Z,100.00
2018-12-04T00:45:18.778Z,100.00
2018-12-04T00:47:47.676Z,100.00
2018-12-04T00:50:16.568Z,100.00
2018-12-04T00:52:45.463Z,100.00
2018-12-04T00:55:14.365Z,100.00
2018-12-04T00:57:43.820Z,100.00
2018-12-04T01:00:13.094Z,100.00
2018-12-04T01:02:42.025Z,100.00
2018-12-04T01:05:10.947Z,100.00
2018-12-04T01:07:39.848Z,100.00
2018-12-04T01:10:08.751Z,100.00
2018-12-04T01:12:37.645Z,100.00
2018-12-04T01:15:07.533Z,100.00
2018-12-04T01:17:36.438Z,100.00
2018-12-04T01:20:06.362Z,100.00
2018-12-04T01:22:35.286Z,100.00
2018-12-04T01:25:04.198Z,100.00
2018-12-04T01:27:33.097Z,100.00
2018-12-04T01:30:02.027Z,100.00
2018-12-04T01:32:30.974Z,100.00
2018-12-04T01:34:59.883Z,100.00
2018-12-04T01:37:28.792Z,100.00
2018-12-04T01:39:57.703Z,100.00
2018-12-04T01:42:26.623Z,100.00
2018-12-04T01:44:55.525Z,100.00
2018-12-04T01:47:24.435Z,100.00
2018-12-04T01:49:53.337Z,100.00
2018-12-04T01:52:22.237Z,100.00
2018-12-04T01:54:51.137Z,100.00
2018-12-04T01:57:20.025Z,100.00
2018-12-04T01:59:48.928Z,100.00
2018-12-04T02:02:17.841Z,100.00
2018-12-04T02:04:46.757Z,100.00
2018-12-04T02:07:15.652Z,100.00
2018-12-04T02:09:44.570Z,100.00
2018-12-04T02:12:13.469Z,100.00
2018-12-04T02:14:42.382Z,100.00
2018-12-04T02:17:11.289Z,100.00
2018-12-04T02:19:40.206Z,100.00
2018-12-04T02:22:09.102Z,100.00
2018-12-04T02:24:38.020Z,100.00
2018-12-04T02:27:06.933Z,100.00
2018-12-04T02:29:35.838Z,100.00
2018-12-04T02:32:04.746Z,100.00
2018-12-04T02:34:33.659Z,100.00
2018-12-04T02:37:02.558Z,100.00
2018-12-04T02:39:31.475Z,100.00
2018-12-04T02:42:00.366Z,100.00
2018-12-04T02:44:29.269Z,100.00
2018-12-04T02:46:58.162Z,100.00
2018-12-04T02:49:27.060Z,100.00
2018-12-04T02:51:55.960Z,100.00
2018-12-04T02:54:24.880Z,100.00
2018-12-04T02:56:53.782Z,100.00
2018-12-04T02:59:22.693Z,100.00
2018-12-04T03:01:51.586Z,100.00
2018-12-04T03:04:20.493Z,100.00
2018-12-04T03:06:49.384Z,100.00
2018-12-04T03:09:18.290Z,100.00
2018-12-04T03:11:47.207Z,100.00
2018-12-04T03:14:16.104Z,100.00
2018-12-04T03:16:45.010Z,100.00
2018-12-04T03:19:13.911Z,100.00
2018-12-04T03:21:42.813Z,100.00
2018-12-04T03:24:11.705Z,100.00
2018-12-04T03:26:40.618Z,100.00
2018-12-04T03:29:09.534Z,100.00
2018-12-04T03:31:38.442Z,100.00
2018-12-04T03:34:07.358Z,100.00
2018-12-04T03:36:36.277Z,100.00
2018-12-04T03:39:07.761Z,100.00
2018-12-04T03:41:36.870Z,100.00
2018-12-04T03:44:05.766Z,100.00
2018-12-04T03:46:34.682Z,100.00
2018-12-04T03:49:03.593Z,100.00
2018-12-04T03:51:32.505Z,100.00
2018-12-04T03:54:01.404Z,100.00
2018-12-04T03:56:30.318Z,100.00
2018-12-04T03:58:59.234Z,100.00
2018-12-04T04:01:28.143Z,100.00
2018-12-04T04:03:57.249Z,100.00
2018-12-04T04:06:26.149Z,100.00
2018-12-04T04:08:55.104Z,100.00
2018-12-04T04:11:23.999Z,100.00
2018-12-04T04:13:53.065Z,100.00
2018-12-04T04:16:21.986Z,100.00
2018-12-04T04:18:50.891Z,100.00
2018-12-04T04:21:19.806Z,100.00
2018-12-04T04:23:48.731Z,100.00
2018-12-04T04:26:17.665Z,100.00
2018-12-04T04:28:46.573Z,100.00
2018-12-04T04:31:15.488Z,100.00
2018-12-04T04:33:44.407Z,100.00
2018-12-04T04:36:13.329Z,100.00
2018-12-04T04:38:42.337Z,100.00
2018-12-04T04:41:11.356Z,100.00
2018-12-04T04:43:40.277Z,100.00
2018-12-04T04:46:09.199Z,100.00
2018-12-04T04:48:38.097Z,100.00
2018-12-04T04:51:07.004Z,100.00
2018-12-04T04:53:35.926Z,100.00
2018-12-04T04:56:04.861Z,100.00
2018-12-04T04:58:33.759Z,100.00
2018-12-04T05:01:02.672Z,100.00
2018-12-04T05:03:31.589Z,100.00
2018-12-04T05:06:00.534Z,100.00
2018-12-04T05:08:29.437Z,100.00
2018-12-04T05:10:58.486Z,100.00
2018-12-04T05:13:27.397Z,100.00
2018-12-04T05:15:56.384Z,100.00
2018-12-04T05:18:25.372Z,100.00
2018-12-04T05:20:54.354Z,100.00
2018-12-04T05:23:23.261Z,100.00
2018-12-04T05:25:52.178Z,100.00
2018-12-04T05:28:21.129Z,100.00
2018-12-04T05:30:50.037Z,100.00
2018-12-04T05:33:18.924Z,100.00
2018-12-04T05:35:47.821Z,100.00
2018-12-04T05:38:16.709Z,100.00
2018-12-04T05:40:45.624Z,100.00
2018-12-04T05:43:14.531Z,100.00
2018-12-04T05:45:43.438Z,100.00
2018-12-04T05:48:12.363Z,100.00
2018-12-04T05:50:41.280Z,100.00
2018-12-04T05:53:21.183Z,100.00
2018-12-04T05:55:50.085Z,100.00
2018-12-04T05:58:18.997Z,100.00
2018-12-04T06:00:48.073Z,100.00
2018-12-04T06:03:16.985Z,100.00
2018-12-04T06:05:45.898Z,100.00
2018-12-04T06:08:14.802Z,100.00
2018-12-04T06:10:43.704Z,100.00
2018-12-04T06:13:12.605Z,100.00
2018-12-04T06:15:41.512Z,100.00
2018-12-04T06:18:11.661Z,100.00
2018-12-04T06:20:40.752Z,100.00
2018-12-04T06:23:09.655Z,100.00
2018-12-04T06:25:38.565Z,100.00
2018-12-04T06:28:07.461Z,100.00
2018-12-04T06:30:36.368Z,100.00
2018-12-04T06:33:05.264Z,100.00
2018-12-04T06:35:34.272Z,100.00
2018-12-04T06:38:03.174Z,100.00
2018-12-04T06:40:32.171Z,100.00
2018-12-04T06:43:01.080Z,100.00
2018-12-04T06:45:29.986Z,100.00
2018-12-04T06:47:58.873Z,100.00
2018-12-04T06:50:27.788Z,100.00
2018-12-04T06:52:56.673Z,100.00
2018-12-04T06:55:25.594Z,100.00
2018-12-04T06:57:58.965Z,100.00
2018-12-04T07:00:27.925Z,100.00
2018-12-04T07:02:56.812Z,100.00
2018-12-04T07:05:25.763Z,100.00
2018-12-04T07:07:54.730Z,100.00
2018-12-04T07:10:23.626Z,100.00
2018-12-04T07:12:52.513Z,99.67
2018-12-04T07:15:21.405Z,99.05
2018-12-04T07:17:50.298Z,98.55
2018-12-04T07:20:19.186Z,97.91
2018-12-04T07:22:48.096Z,98.00
2018-12-04T07:25:17.085Z,96.57
2018-12-04T07:27:46.024Z,95.23
2018-12-04T07:30:15.000Z,95.30
2018-12-04T07:32:43.909Z,94.58
2018-12-04T07:35:12.812Z,94.90
2018-12-04T07:37:41.704Z,93.06
2018-12-04T07:40:10.602Z,91.45
2018-12-04T07:42:39.503Z,91.88
2018-12-04T07:45:08.489Z,91.52
2018-12-04T07:47:37.393Z,91.26
2018-12-04T07:50:06.365Z,91.43
2018-12-04T07:52:35.261Z,91.78
2018-12-04T07:55:04.200Z,91.40
2018-12-04T07:57:33.109Z,91.19
2018-12-04T08:00:02.001Z,90.85
2018-12-04T08:02:30.889Z,91.16
2018-12-04T08:04:59.793Z,91.27
2018-12-04T08:07:28.681Z,92.03
2018-12-04T08:09:57.593Z,90.82
2018-12-04T08:12:26.502Z,89.92
2018-12-04T08:14:55.411Z,89.02
2018-12-04T08:17:24.316Z,87.22
2018-12-04T08:19:53.213Z,85.69
2018-12-04T08:22:22.115Z,86.19
2018-12-04T08:24:51.030Z,86.53
2018-12-04T08:27:26.310Z,85.69
2018-12-04T08:29:55.215Z,86.88
2018-12-04T08:32:24.133Z,86.91
2018-12-04T08:34:53.077Z,85.93
2018-12-04T08:37:21.977Z,85.89
2018-12-04T08:39:50.911Z,87.13
2018-12-04T08:42:19.856Z,86.67
2018-12-04T08:44:48.741Z,85.72
2018-12-04T08:47:17.640Z,85.02
2018-12-04T08:49:46.620Z,84.00
2018-12-04T08:52:15.565Z,83.38
2018-12-04T08:54:44.480Z,84.70
2018-12-04T08:57:13.393Z,84.07
2018-12-04T08:59:42.300Z,84.36
2018-12-04T09:02:11.317Z,84.19
2018-12-04T09:04:40.219Z,84.14
2018-12-04T09:07:09.163Z,84.19
2018-12-04T09:09:38.064Z,84.18
2018-12-04T09:12:06.971Z,83.76
2018-12-04T09:14:38.298Z,82.86
2018-12-04T09:17:06.816Z,81.82
2018-12-04T09:19:35.786Z,82.05
2018-12-04T09:22:04.821Z,82.59
2018-12-04T09:24:33.798Z,82.07
2018-12-04T09:27:05.444Z,81.90
2018-12-04T09:29:33.663Z,81.69
2018-12-04T09:32:02.576Z,82.70
2018-12-04T09:34:31.466Z,82.10
2018-12-04T09:37:00.373Z,82.81
2018-12-04T09:39:29.275Z,81.45
2018-12-04T09:41:58.213Z,82.03
2018-12-04T09:44:27.133Z,81.63
2018-12-04T09:46:56.044Z,81.18
2018-12-04T09:49:24.939Z,81.31
2018-12-04T09:51:53.857Z,82.23
2018-12-04T09:54:22.766Z,83.62
2018-12-04T09:56:51.805Z,83.29
2018-12-04T09:59:20.717Z,82.44
2018-12-04T10:01:49.611Z,82.50
2018-12-04T10:04:18.501Z,82.39
2018-12-04T10:06:47.391Z,82.81
2018-12-04T10:09:16.293Z,82.64
2018-12-04T10:11:45.193Z,83.64
2018-12-04T10:14:14.094Z,84.19
2018-12-04T10:16:42.985Z,84.79
2018-12-04T10:19:11.878Z,86.40
2018-12-04T10:21:40.873Z,86.10
2018-12-04T10:24:09.857Z,85.98
2018-12-04T10:26:38.917Z,86.76
2018-12-04T10:29:07.816Z,86.26
2018-12-04T10:31:36.714Z,85.59
2018-12-04T10:34:05.609Z,85.78
2018-12-04T10:36:34.501Z,85.01
2018-12-04T10:39:04.314Z,84.72
2018-12-04T10:41:33.213Z,84.10
2018-12-04T10:44:02.109Z,83.19
2018-12-04T10:46:30.997Z,83.98
2018-12-04T10:48:59.885Z,83.76
2018-12-04T10:51:28.769Z,82.94
2018-12-04T10:53:57.656Z,82.30
2018-12-04T10:56:26.554Z,81.71
2018-12-04T10:58:55.436Z,81.94
2018-12-04T11:01:28.383Z,82.59
2018-12-04T11:03:57.282Z,81.48
2018-12-04T11:06:26.177Z,80.62
2018-12-04T11:08:55.076Z,82.42
2018-12-04T11:11:23.966Z,82.65
2018-12-04T11:13:52.968Z,81.62
2018-12-04T11:16:21.953Z,80.62
2018-12-04T11:18:50.845Z,80.29
2018-12-04T11:21:19.780Z,80.25
2018-12-04T11:23:48.681Z,80.94
2018-12-04T11:26:17.565Z,79.13
2018-12-04T11:28:46.486Z,79.45
2018-12-04T11:31:15.391Z,79.92
2018-12-04T11:33:45.611Z,80.64
2018-12-04T11:36:14.500Z,81.10
2018-12-04T11:38:43.379Z,80.82
2018-12-04T11:41:12.269Z,81.06
2018-12-04T11:43:41.161Z,81.74
2018-12-04T11:46:10.061Z,82.71
2018-12-04T11:48:38.946Z,82.54
2018-12-04T11:51:07.849Z,82.32
2018-12-04T11:53:36.742Z,80.95
2018-12-04T11:56:05.651Z,81.06
2018-12-04T11:58:34.710Z,81.25
2018-12-04T12:01:03.729Z,82.46
2018-12-04T12:03:32.611Z,82.19
2018-12-04T12:06:01.535Z,82.05
2018-12-04T12:08:30.485Z,81.33
2018-12-04T12:10:59.393Z,82.30
2018-12-04T12:13:28.364Z,82.96
2018-12-04T12:15:57.253Z,83.93
2018-12-04T12:18:26.233Z,83.42
2018-12-04T12:20:55.239Z,82.96
2018-12-04T12:23:24.133Z,83.93
2018-12-04T12:25:53.080Z,84.61
2018-12-04T12:28:22.021Z,85.31
2018-12-04T12:30:51.913Z,86.38
2018-12-04T12:33:20.833Z,87.22
2018-12-04T12:35:49.774Z,87.28
2018-12-04T12:38:18.700Z,88.54
2018-12-04T12:40:47.628Z,88.28
2018-12-04T12:43:16.559Z,88.22
2018-12-04T12:45:45.486Z,88.92
2018-12-04T12:48:14.426Z,89.81
2018-12-04T12:50:43.394Z,89.96
2018-12-04T12:53:12.327Z,90.54
2018-12-04T12:55:41.273Z,90.88
2018-12-04T12:58:10.202Z,91.24
2018-12-04T13:00:39.141Z,92.59
2018-12-04T13:03:08.035Z,93.07
2018-12-04T13:05:37.378Z,93.18
2018-12-04T13:08:06.386Z,92.91
2018-12-04T13:10:35.312Z,92.87
2018-12-04T13:13:04.237Z,93.11
2018-12-04T13:15:33.166Z,93.23
2018-12-04T13:18:02.096Z,92.72
2018-12-04T13:20:31.025Z,93.19
2018-12-04T13:22:59.960Z,93.57
2018-12-04T13:25:28.886Z,93.13
2018-12-04T13:27:57.789Z,93.80
2018-12-04T13:30:26.705Z,94.92
2018-12-04T13:32:55.765Z,95.24
2018-12-04T13:35:24.790Z,95.78
2018-12-04T13:37:53.684Z,96.13
2018-12-04T13:40:22.651Z,96.76
2018-12-04T13:42:51.560Z,96.80
2018-12-04T13:45:20.473Z,97.30
2018-12-04T13:47:49.374Z,97.75
2018-12-04T13:50:18.294Z,98.34
2018-12-04T13:52:47.214Z,98.73
2018-12-04T13:55:16.121Z,99.21
2018-12-04T13:57:50.593Z,99.17
2018-12-04T14:00:15.989Z,99.90
2018-12-04T14:02:44.928Z,99.93
2018-12-04T14:05:13.875Z,100.00
2018-12-04T14:07:42.815Z,100.00
2018-12-04T14:10:11.745Z,100.00
2018-12-04T14:12:40.743Z,100.00
2018-12-04T14:15:09.770Z,100.00
2018-12-04T14:17:38.690Z,100.00
2018-12-04T14:20:09.164Z,100.00
2018-12-04T14:22:38.122Z,100.00
2018-12-04T14:25:07.064Z,100.00
2018-12-04T14:27:35.974Z,100.00
2018-12-04T14:30:06.593Z,100.00
2018-12-04T14:32:35.518Z,100.00
2018-12-04T14:35:04.452Z,100.00
2018-12-04T14:37:33.536Z,100.00
2018-12-04T14:40:02.543Z,100.00
2018-12-04T14:42:31.475Z,100.00
2018-12-04T14:45:00.388Z,100.00
2018-12-04T14:47:29.347Z,100.00
2018-12-04T14:49:58.246Z,100.00
2018-12-04T14:52:27.195Z,100.00
2018-12-04T14:54:56.103Z,100.00
2018-12-04T14:57:25.101Z,100.00
2018-12-04T14:59:54.086Z,100.00
2018-12-04T15:02:23.102Z,100.00
2018-12-04T15:04:52.021Z,100.00
2018-12-04T15:07:21.047Z,100.00
2018-12-04T15:09:50.025Z,100.00
2018-12-04T15:12:18.983Z,100.00
2018-12-04T15:14:47.895Z,100.00
2018-12-04T15:17:16.812Z,100.00
2018-12-04T15:19:45.734Z,100.00
2018-12-04T15:22:14.676Z,100.00
2018-12-04T15:24:43.640Z,100.00
2018-12-04T15:27:12.553Z,100.00
2018-12-04T15:29:41.551Z,100.00
2018-12-04T15:32:10.472Z,100.00
2018-12-04T15:34:39.451Z,100.00
2018-12-04T15:37:08.504Z,100.00
2018-12-04T15:39:37.494Z,100.00
2018-12-04T15:42:06.470Z,100.00
2018-12-04T15:44:35.469Z,100.00
2018-12-04T15:47:04.539Z,100.00
2018-12-04T15:49:33.544Z,100.00
2018-12-04T15:52:02.618Z,100.00
2018-12-04T15:54:31.585Z,100.00
2018-12-04T15:57:00.499Z,100.00
2018-12-04T15:59:29.399Z,100.00
2018-12-04T16:01:58.313Z,100.00
2018-12-04T16:04:27.294Z,100.00
2018-12-04T16:06:56.188Z,100.00
2018-12-04T16:09:25.097Z,100.00
2018-12-04T16:11:54.074Z,100.00
2018-12-04T16:14:22.974Z,100.00
2018-12-04T16:16:52.039Z,100.00
2018-12-04T16:19:20.929Z,100.00
2018-12-04T16:21:49.817Z,100.00
2018-12-04T16:24:18.827Z,100.00
2018-12-04T16:26:47.728Z,100.00
2018-12-04T16:29:16.652Z,100.00
2018-12-04T16:31:45.600Z,100.00
2018-12-04T16:34:14.496Z,100.00
2018-12-04T16:36:43.384Z,100.00
2018-12-04T16:39:12.276Z,100.00
2018-12-04T16:41:41.200Z,100.00
2018-12-04T16:44:10.133Z,100.00
2018-12-04T16:46:39.077Z,100.00
2018-12-04T16:49:07.998Z,100.00
2018-12-04T16:51:36.921Z,100.00
2018-12-04T16:54:05.858Z,100.00
2018-12-04T16:56:34.764Z,100.00
2018-12-04T16:59:03.655Z,100.00
2018-12-04T17:01:32.575Z,100.00
2018-12-04T17:04:01.498Z,100.00
2018-12-04T17:06:30.402Z,100.00
2018-12-04T17:08:59.320Z,100.00
2018-12-04T17:11:28.309Z,100.00
2018-12-04T17:13:57.244Z,100.00
2018-12-04T17:16:26.194Z,100.00
2018-12-04T17:18:55.130Z,100.00
2018-12-04T17:21:24.046Z,100.00
2018-12-04T17:23:52.938Z,100.00
2018-12-04T17:26:21.861Z,100.00
2018-12-04T17:28:50.778Z,100.00
2018-12-04T17:31:19.669Z,100.00
2018-12-04T17:33:48.633Z,100.00
2018-12-04T17:36:17.517Z,100.00
2018-12-04T17:38:46.421Z,100.00
2018-12-04T17:41:15.362Z,100.00
2018-12-04T17:43:44.271Z,100.00
2018-12-04T17:46:13.168Z,100.00
2018-12-04T17:48:42.085Z,100.00
2018-12-04T17:51:11.205Z,100.00
2018-12-04T17:53:40.104Z,100.00
2018-12-04T17:56:08.997Z,100.00
2018-12-04T17:58:38.009Z,100.00
2018-12-04T18:01:06.932Z,100.00
2018-12-04T18:03:35.869Z,100.00
2018-12-04T18:06:04.769Z,100.00
2018-12-04T18:08:33.669Z,100.00
2018-12-04T18:11:02.566Z,100.00
2018-12-04T18:13:31.485Z,100.00
2018-12-04T18:16:00.449Z,100.00
2018-12-04T18:18:29.349Z,100.00
2018-12-04T18:20:58.249Z,100.00
2018-12-04T18:23:27.196Z,100.00
2018-12-04T18:25:56.114Z,100.00
2018-12-04T18:28:25.150Z,100.00
2018-12-04T18:30:54.074Z,100.00
2018-12-04T18:33:23.007Z,100.00
2018-12-04T18:35:51.933Z,100.00
2018-12-04T18:38:20.874Z,100.00
2018-12-04T18:40:49.957Z,100.00
2018-12-04T18:43:18.959Z,100.00
2018-12-04T18:45:47.885Z,100.00
2018-12-04T18:48:16.809Z,100.00
2018-12-04T18:50:45.740Z,100.00
2018-12-04T18:53:14.670Z,100.00
2018-12-04T18:55:43.668Z,100.00
2018-12-04T18:58:12.614Z,100.00
2018-12-04T19:00:41.516Z,100.00
2018-12-04T19:03:10.509Z,100.00
2018-12-04T19:05:39.401Z,100.00
2018-12-04T19:08:09.226Z,100.00
2018-12-04T19:10:38.149Z,100.00
2018-12-04T19:13:07.058Z,100.00
2018-12-04T19:15:35.977Z,100.00
2018-12-04T19:18:04.905Z,100.00
2018-12-04T19:20:33.831Z,100.00
2018-12-04T19:23:02.800Z,100.00
2018-12-04T19:25:31.760Z,100.00
2018-12-04T19:28:01.353Z,100.00
2018-12-04T19:30:30.277Z,100.00
2018-12-04T19:32:59.225Z,100.00
2018-12-04T19:35:28.154Z,100.00
2018-12-04T19:37:57.057Z,100.00
2018-12-04T19:40:25.976Z,100.00
2018-12-04T19:42:54.904Z,100.00
2018-12-04T19:45:23.809Z,100.00
2018-12-04T19:47:52.767Z,100.00
2018-12-04T19:50:21.690Z,100.00
2018-12-04T19:52:50.599Z,100.00
2018-12-04T19:55:19.605Z,100.00
2018-12-04T19:57:48.506Z,100.00
2018-12-04T20:00:17.552Z,100.00
2018-12-04T20:02:46.479Z,100.00
2018-12-04T20:05:15.506Z,100.00
2018-12-04T20:07:44.481Z,100.00
2018-12-04T20:10:13.404Z,100.00
2018-12-04T20:12:42.329Z,100.00
2018-12-04T20:15:11.254Z,100.00
2018-12-04T20:17:40.166Z,100.00
2018-12-04T20:20:09.089Z,100.00
2018-12-04T20:22:37.997Z,100.00
2018-12-04T20:25:07.987Z,100.00
2018-12-04T20:27:36.906Z,100.00
2018-12-04T20:30:07.006Z,100.00
2018-12-04T20:32:35.914Z,100.00
2018-12-04T20:35:05.126Z,100.00
2018-12-04T20:37:34.033Z,100.00
2018-12-04T20:40:02.949Z,100.00
2018-12-04T20:42:31.867Z,100.00
2018-12-04T20:45:00.765Z,100.00
2018-12-04T20:47:29.693Z,100.00
2018-12-04T20:49:58.623Z,100.00
2018-12-04T20:52:27.612Z,100.00
2018-12-04T20:54:56.527Z,100.00
2018-12-04T20:57:25.504Z,100.00
2018-12-04T20:59:54.409Z,100.00
2018-12-04T21:02:23.462Z,100.00
2018-12-04T21:04:52.372Z,100.00
2018-12-04T21:07:21.265Z,100.00
2018-12-04T21:09:50.186Z,100.00
2018-12-04T21:12:19.104Z,100.00
2018-12-04T21:14:48.013Z,100.00
2018-12-04T21:17:16.936Z,100.00
2018-12-04T21:19:45.910Z,100.00
2018-12-04T21:22:14.829Z,100.00
2018-12-04T21:24:43.729Z,100.00
2018-12-04T21:27:17.734Z,100.00
2018-12-04T21:29:51.616Z,100.00
2018-12-04T21:32:25.536Z,100.00
2018-12-04T21:34:59.502Z,100.00
2018-12-04T21:38:37.013Z,100.00
2018-12-04T21:41:14.905Z,100.00
2018-12-04T21:43:48.916Z,100.00
2018-12-04T21:46:22.813Z,100.00
2018-12-04T21:48:52.103Z,100.00
2018-12-04T21:51:21.022Z,100.00
2018-12-04T21:53:50.021Z,100.00
2018-12-04T21:56:18.946Z,100.00
2018-12-04T21:58:47.842Z,100.00
2018-12-04T22:01:16.742Z,100.00
2018-12-04T22:03:45.650Z,100.00
2018-12-04T22:06:14.557Z,100.00
2018-12-04T22:08:43.461Z,100.00
2018-12-04T22:11:12.485Z,100.00
2018-12-04T22:13:41.379Z,100.00
2018-12-04T22:16:10.293Z,100.00
2018-12-04T22:18:39.185Z,100.00
2018-12-04T22:21:08.102Z,100.00
2018-12-04T22:23:36.997Z,100.00
2018-12-04T22:26:06.033Z,100.00
2018-12-04T22:28:34.929Z,100.00
2018-12-04T22:31:03.859Z,100.00
2018-12-04T22:33:32.786Z,100.00
2018-12-04T22:36:01.692Z,100.00
2018-12-04T22:38:30.593Z,100.00
2018-12-04T22:40:59.494Z,100.00
2018-12-04T22:43:28.389Z,100.00
2018-12-04T22:45:57.289Z,100.00
2018-12-04T22:48:26.195Z,100.00
2018-12-04T22:50:55.119Z,100.00
2018-12-04T22:53:24.024Z,100.00
2018-12-04T22:55:52.937Z,100.00
2018-12-04T22:58:21.926Z,100.00
2018-12-04T23:00:50.874Z,100.00
2018-12-04T23:03:19.781Z,100.00
2018-12-04T23:05:48.696Z,100.00
2018-12-04T23:08:17.613Z,100.00
2018-12-04T23:10:46.517Z,100.00
2018-12-04T23:13:15.526Z,100.00
2018-12-04T23:15:44.441Z,100.00
2018-12-04T23:18:13.320Z,100.00
2018-12-04T23:20:42.231Z,100.00
2018-12-04T23:23:11.143Z,100.00
2018-12-04T23:25:40.095Z,100.00
2018-12-04T23:28:08.996Z,100.00
2018-12-04T23:30:37.898Z,100.00
2018-12-04T23:33:06.802Z,100.00
2018-12-04T23:35:35.686Z,100.00
2018-12-04T23:38:04.590Z,100.00
2018-12-04T23:40:33.491Z,100.00
2018-12-04T23:43:02.395Z,100.00
2018-12-04T23:45:31.286Z,100.00
2018-12-04T23:48:00.197Z,100.00
2018-12-04T23:50:29.100Z,100.00
2018-12-04T23:52:58.010Z,100.00
2018-12-04T23:55:26.909Z,100.00
2018-12-04T23:57:55.853Z,100.00
